sensor_id;sensor_type;location;lat;lon;timestamp;pressure;altitude;pressure_sealevel;temperature;humidity
20077;BME280;12348;42.710;23.378;2023-02-03T00:00:37;95361.09;;;2.65;100.00
20077;BME280;12348;42.710;23.378;2023-02-03T00:03:04;95363.31;;;2.56;100.00
20077;BME280;12348;42.710;23.378;2023-02-03T00:05:31;95368.53;;;2.51;100.00
20077;BME280;12348;42.710;23.378;2023-02-03T00:08:02;95365.59;;;2.64;100.00
20077;BME280;12348;42.710;23.378;2023-02-03T00:10:29;95373.47;;;2.59;100.00
20077;BME280;12348;42.710;23.378;2023-02-03T00:12:56;95365.88;;;2.51;100.00
20077;BME280;12348;42.710;23.378;2023-02-03T00:15:23;95371.31;;;2.45;100.00
20077;BME280;12348;42.710;23.378;2023-02-03T00:17:51;95374.78;;;2.33;100.00
20077;BME280;12348;42.710;23.378;2023-02-03T00:20:18;95375.94;;;2.26;100.00
20077;BME280;12348;42.710;23.378;2023-02-03T00:22:45;95372.69;;;2.24;100.00
20077;BME280;12348;42.710;23.378;2023-02-03T00:25:14;95370.97;;;2.17;100.00
20077;BME280;12348;42.710;23.378;2023-02-03T00:27:40;95384.72;;;2.14;100.00
20077;BME280;12348;42.710;23.378;2023-02-03T00:30:09;95388.41;;;2.13;100.00
20077;BME280;12348;42.710;23.378;2023-02-03T00:32:36;95383.41;;;2.05;100.00
20077;BME280;12348;42.710;23.378;2023-02-03T00:35:04;95383.41;;;2.05;100.00
20077;BME280;12348;42.710;23.378;2023-02-03T00:37:30;95397.63;;;2.11;100.00
20077;BME280;12348;42.710;23.378;2023-02-03T00:39:57;95395.09;;;2.04;100.00
20077;BME280;12348;42.710;23.378;2023-02-03T00:42:26;95401.19;;;2.05;100.00
20077;BME280;12348;42.710;23.378;2023-02-03T00:44:53;95407.81;;;2.02;100.00
20077;BME280;12348;42.710;23.378;2023-02-03T00:47:20;95408.00;;;2.01;100.00
20077;BME280;12348;42.710;23.378;2023-02-03T00:49:47;95411.13;;;1.98;100.00
20077;BME280;12348;42.710;23.378;2023-02-03T00:52:14;95419.31;;;1.96;100.00
20077;BME280;12348;42.710;23.378;2023-02-03T00:54:41;95405.94;;;1.91;100.00
20077;BME280;12348;42.710;23.378;2023-02-03T00:57:08;95401.88;;;1.88;100.00
20077;BME280;12348;42.710;23.378;2023-02-03T00:59:36;95406.38;;;1.88;100.00
20077;BME280;12348;42.710;23.378;2023-02-03T01:02:03;95413.31;;;1.89;100.00
20077;BME280;12348;42.710;23.378;2023-02-03T01:04:30;95403.13;;;1.86;100.00
20077;BME280;12348;42.710;23.378;2023-02-03T01:06:57;95410.38;;;1.79;100.00
20077;BME280;12348;42.710;23.378;2023-02-03T01:09:24;95412.84;;;1.92;100.00
20077;BME280;12348;42.710;23.378;2023-02-03T01:11:51;95417.91;;;1.93;100.00
20077;BME280;12348;42.710;23.378;2023-02-03T01:14:18;95413.75;;;1.86;100.00
20077;BME280;12348;42.710;23.378;2023-02-03T01:16:46;95421.97;;;1.84;100.00
20077;BME280;12348;42.710;23.378;2023-02-03T01:19:13;95410.19;;;1.80;100.00
20077;BME280;12348;42.710;23.378;2023-02-03T01:21:41;95389.03;;;1.74;100.00
20077;BME280;12348;42.710;23.378;2023-02-03T01:24:08;95406.44;;;1.69;100.00
20077;BME280;12348;42.710;23.378;2023-02-03T01:26:35;95402.97;;;1.57;100.00
20077;BME280;12348;42.710;23.378;2023-02-03T01:29:02;95407.09;;;1.53;100.00
20077;BME280;12348;42.710;23.378;2023-02-03T01:31:32;95397.50;;;1.52;100.00
20077;BME280;12348;42.710;23.378;2023-02-03T01:34:02;95401.28;;;1.44;100.00
20077;BME280;12348;42.710;23.378;2023-02-03T01:36:30;95409.84;;;1.47;100.00
20077;BME280;12348;42.710;23.378;2023-02-03T01:38:57;95406.16;;;1.48;100.00
20077;BME280;12348;42.710;23.378;2023-02-03T01:41:26;95411.91;;;1.44;100.00
20077;BME280;12348;42.710;23.378;2023-02-03T01:43:55;95414.91;;;1.48;100.00
20077;BME280;12348;42.710;23.378;2023-02-03T01:46:30;95410.94;;;1.57;100.00
20077;BME280;12348;42.710;23.378;2023-02-03T01:49:05;95427.28;;;1.54;100.00
20077;BME280;12348;42.710;23.378;2023-02-03T01:51:34;95417.84;;;1.58;100.00
20077;BME280;12348;42.710;23.378;2023-02-03T01:54:04;95433.25;;;1.80;100.00
20077;BME280;12348;42.710;23.378;2023-02-03T01:56:34;95411.41;;;1.66;100.00
20077;BME280;12348;42.710;23.378;2023-02-03T01:59:01;95422.25;;;1.64;100.00
20077;BME280;12348;42.710;23.378;2023-02-03T02:01:29;95417.41;;;1.61;100.00
20077;BME280;12348;42.710;23.378;2023-02-03T02:03:58;95422.00;;;1.54;100.00
20077;BME280;12348;42.710;23.378;2023-02-03T02:06:29;95419.19;;;1.49;100.00
20077;BME280;12348;42.710;23.378;2023-02-03T02:08:57;95418.00;;;1.45;100.00
20077;BME280;12348;42.710;23.378;2023-02-03T02:11:26;95418.81;;;1.45;100.00
20077;BME280;12348;42.710;23.378;2023-02-03T02:13:55;95400.47;;;1.44;100.00
20077;BME280;12348;42.710;23.378;2023-02-03T02:16:30;95413.75;;;1.44;100.00
20077;BME280;12348;42.710;23.378;2023-02-03T02:19:19;95421.13;;;1.42;
20077;BME280;12348;42.710;23.378;2023-02-03T02:22:06;95427.00;;;1.44;100.00
20077;BME280;12348;42.710;23.378;2023-02-03T02:28:10;95441.53;;;1.41;100.00
20077;BME280;12348;42.710;23.378;2023-02-03T02:31:05;95448.59;;;1.48;100.00
20077;BME280;12348;42.710;23.378;2023-02-03T02:33:43;95448.06;;;1.57;100.00
20077;BME280;12348;42.710;23.378;2023-02-03T02:36:19;95452.22;;;1.53;100.00
20077;BME280;12348;42.710;23.378;2023-02-03T02:38:58;95445.28;;;1.52;100.00
20077;BME280;12348;42.710;23.378;2023-02-03T02:41:33;95438.59;;;1.50;100.00
20077;BME280;12348;42.710;23.378;2023-02-03T02:44:03;95428.63;;;1.45;100.00
20077;BME280;12348;42.710;23.378;2023-02-03T02:46:36;95425.72;;;1.35;100.00
20077;BME280;12348;42.710;23.378;2023-02-03T02:49:09;95433.53;;;1.30;100.00
20077;BME280;12348;42.710;23.378;2023-02-03T02:51:40;95431.41;;;1.20;100.00
20077;BME280;12348;42.710;23.378;2023-02-03T02:54:12;95436.81;;;1.13;100.00
20077;BME280;12348;42.710;23.378;2023-02-03T02:56:44;95430.75;;;1.06;100.00
20077;BME280;12348;42.710;23.378;2023-02-03T02:59:14;95440.75;;;1.04;100.00
20077;BME280;12348;42.710;23.378;2023-02-03T03:01:41;95440.63;;;0.99;100.00
20077;BME280;12348;42.710;23.378;2023-02-03T03:04:12;95454.94;;;0.98;100.00
20077;BME280;12348;42.710;23.378;2023-02-03T03:06:43;95435.78;;;0.96;100.00
20077;BME280;12348;42.710;23.378;2023-02-03T03:09:14;95457.34;;;1.00;100.00
20077;BME280;12348;42.710;23.378;2023-02-03T03:11:46;95465.09;;;1.01;100.00
20077;BME280;12348;42.710;23.378;2023-02-03T03:14:17;95456.25;;;1.07;100.00
20077;BME280;12348;42.710;23.378;2023-02-03T03:16:47;95458.22;;;1.12;100.00
20077;BME280;12348;42.710;23.378;2023-02-03T03:19:21;95462.94;;;1.10;100.00
20077;BME280;12348;42.710;23.378;2023-02-03T03:21:53;95442.53;;;1.10;100.00
20077;BME280;12348;42.710;23.378;2023-02-03T03:24:23;95465.00;;;1.08;100.00
20077;BME280;12348;42.710;23.378;2023-02-03T03:26:54;95462.56;;;1.06;100.00
20077;BME280;12348;42.710;23.378;2023-02-03T03:29:29;95481.56;;;1.03;100.00
20077;BME280;12348;42.710;23.378;2023-02-03T03:31:57;95462.81;;;1.05;100.00
20077;BME280;12348;42.710;23.378;2023-02-03T03:34:27;95470.66;;;1.11;100.00
20077;BME280;12348;42.710;23.378;2023-02-03T03:36:59;95474.13;;;1.12;100.00
20077;BME280;12348;42.710;23.378;2023-02-03T03:39:31;95475.53;;;1.14;100.00
20077;BME280;12348;42.710;23.378;2023-02-03T03:42:05;95486.94;;;1.15;100.00
20077;BME280;12348;42.710;23.378;2023-02-03T03:44:38;95490.88;;;1.12;100.00
20077;BME280;12348;42.710;23.378;2023-02-03T03:47:10;95486.22;;;1.08;100.00
20077;BME280;12348;42.710;23.378;2023-02-03T03:49:42;95485.56;;;1.12;100.00
20077;BME280;12348;42.710;23.378;2023-02-03T03:52:14;95488.66;;;1.09;100.00
20077;BME280;12348;42.710;23.378;2023-02-03T03:54:44;95484.22;;;1.21;100.00
20077;BME280;12348;42.710;23.378;2023-02-03T03:57:15;95499.78;;;1.18;100.00
20077;BME280;12348;42.710;23.378;2023-02-03T03:59:46;95497.63;;;1.08;100.00
20077;BME280;12348;42.710;23.378;2023-02-03T04:02:15;95510.88;;;1.08;100.00
20077;BME280;12348;42.710;23.378;2023-02-03T04:04:45;95503.38;;;1.05;100.00
20077;BME280;12348;42.710;23.378;2023-02-03T04:07:14;95491.50;;;1.08;100.00
20077;BME280;12348;42.710;23.378;2023-02-03T04:09:41;95514.13;;;1.10;100.00
20077;BME280;12348;42.710;23.378;2023-02-03T04:12:14;95517.59;;;1.11;100.00
20077;BME280;12348;42.710;23.378;2023-02-03T04:14:42;95521.94;;;1.05;100.00
20077;BME280;12348;42.710;23.378;2023-02-03T04:17:09;95527.09;;;1.00;100.00
20077;BME280;12348;42.710;23.378;2023-02-03T04:19:36;95530.34;;;1.02;100.00
20077;BME280;12348;42.710;23.378;2023-02-03T04:22:04;95536.69;;;1.01;100.00
20077;BME280;12348;42.710;23.378;2023-02-03T04:24:30;95533.41;;;0.99;100.00
20077;BME280;12348;42.710;23.378;2023-02-03T04:26:57;95543.28;;;0.92;100.00
20077;BME280;12348;42.710;23.378;2023-02-03T04:29:24;95545.56;;;0.88;100.00
20077;BME280;12348;42.710;23.378;2023-02-03T04:31:51;95548.53;;;0.99;100.00
20077;BME280;12348;42.710;23.378;2023-02-03T04:34:17;95554.78;;;1.04;100.00
20077;BME280;12348;42.710;23.378;2023-02-03T04:36:44;95543.44;;;1.15;100.00
20077;BME280;12348;42.710;23.378;2023-02-03T04:39:12;95548.31;;;1.18;100.00
20077;BME280;12348;42.710;23.378;2023-02-03T04:41:39;95544.41;;;1.21;100.00
20077;BME280;12348;42.710;23.378;2023-02-03T04:44:07;95557.25;;;1.24;100.00
20077;BME280;12348;42.710;23.378;2023-02-03T04:46:33;95566.81;;;1.25;100.00
20077;BME280;12348;42.710;23.378;2023-02-03T04:49:00;95557.06;;;1.19;100.00
20077;BME280;12348;42.710;23.378;2023-02-03T04:51:27;95560.81;;;1.11;100.00
20077;BME280;12348;42.710;23.378;2023-02-03T04:53:54;95563.09;;;1.08;100.00
20077;BME280;12348;42.710;23.378;2023-02-03T04:56:22;95565.84;;;1.01;100.00
20077;BME280;12348;42.710;23.378;2023-02-03T04:58:49;95565.91;;;0.94;100.00
20077;BME280;12348;42.710;23.378;2023-02-03T05:01:16;95566.69;;;0.95;100.00
20077;BME280;12348;42.710;23.378;2023-02-03T05:03:42;95577.72;;;0.92;100.00
20077;BME280;12348;42.710;23.378;2023-02-03T05:06:09;95573.66;;;0.89;100.00
20077;BME280;12348;42.710;23.378;2023-02-03T05:08:36;95573.91;;;0.88;100.00
20077;BME280;12348;42.710;23.378;2023-02-03T05:11:03;95582.13;;;0.80;100.00
20077;BME280;12348;42.710;23.378;2023-02-03T05:13:31;95575.84;;;0.74;100.00
20077;BME280;12348;42.710;23.378;2023-02-03T05:15:58;95580.75;;;0.70;100.00
20077;BME280;12348;42.710;23.378;2023-02-03T05:18:24;95583.22;;;0.72;100.00
20077;BME280;12348;42.710;23.378;2023-02-03T05:20:51;95589.91;;;0.75;100.00
20077;BME280;12348;42.710;23.378;2023-02-03T05:23:18;95594.19;;;0.76;100.00
20077;BME280;12348;42.710;23.378;2023-02-03T05:25:44;95601.13;;;0.77;100.00
20077;BME280;12348;42.710;23.378;2023-02-03T05:28:11;95602.31;;;0.81;100.00
20077;BME280;12348;42.710;23.378;2023-02-03T05:30:40;95607.19;;;0.84;100.00
20077;BME280;12348;42.710;23.378;2023-02-03T05:33:07;95590.50;;;0.77;100.00
20077;BME280;12348;42.710;23.378;2023-02-03T05:35:34;95596.72;;;0.89;100.00
20077;BME280;12348;42.710;23.378;2023-02-03T05:38:00;95597.22;;;0.79;100.00
20077;BME280;12348;42.710;23.378;2023-02-03T05:40:27;95589.28;;;0.79;100.00
20077;BME280;12348;42.710;23.378;2023-02-03T05:43:20;95591.94;;;0.79;100.00
20077;BME280;12348;42.710;23.378;2023-02-03T05:45:48;95590.47;;;0.83;100.00
20077;BME280;12348;42.710;23.378;2023-02-03T05:48:15;95599.44;;;0.82;100.00
20077;BME280;12348;42.710;23.378;2023-02-03T05:50:42;95603.09;;;0.81;100.00
20077;BME280;12348;42.710;23.378;2023-02-03T05:53:09;95604.16;;;0.80;100.00
20077;BME280;12348;42.710;23.378;2023-02-03T05:55:36;95600.88;;;0.78;100.00
20077;BME280;12348;42.710;23.378;2023-02-03T05:58:03;95619.66;;;0.77;100.00
20077;BME280;12348;42.710;23.378;2023-02-03T06:00:30;95605.19;;;1.23;100.00
20077;BME280;12348;42.710;23.378;2023-02-03T06:02:59;95611.81;;;1.13;100.00
20077;BME280;12348;42.710;23.378;2023-02-03T06:05:28;95614.09;;;1.10;100.00
20077;BME280;12348;42.710;23.378;2023-02-03T06:07:56;95589.69;;;1.19;100.00
20077;BME280;12348;42.710;23.378;2023-02-03T06:10:22;95605.63;;;1.19;100.00
20077;BME280;12348;42.710;23.378;2023-02-03T06:12:49;95593.63;;;1.17;100.00
20077;BME280;12348;42.710;23.378;2023-02-03T06:15:16;95614.59;;;1.18;100.00
20077;BME280;12348;42.710;23.378;2023-02-03T06:17:44;95620.28;;;1.22;100.00
20077;BME280;12348;42.710;23.378;2023-02-03T06:20:14;95616.09;;;1.33;100.00
20077;BME280;12348;42.710;23.378;2023-02-03T06:22:42;95603.34;;;1.41;100.00
20077;BME280;12348;42.710;23.378;2023-02-03T06:25:09;95618.97;;;2.05;100.00
20077;BME280;12348;42.710;23.378;2023-02-03T06:27:38;95627.50;;;3.44;100.00
20077;BME280;12348;42.710;23.378;2023-02-03T06:30:06;95613.63;;;4.63;100.00
20077;BME280;12348;42.710;23.378;2023-02-03T06:32:33;95638.31;;;5.93;100.00
20077;BME280;12348;42.710;23.378;2023-02-03T06:35:00;95631.66;;;7.21;82.03
20077;BME280;12348;42.710;23.378;2023-02-03T06:37:28;95641.03;;;8.56;75.30
20077;BME280;12348;42.710;23.378;2023-02-03T06:39:55;95649.72;;;9.29;69.78
20077;BME280;12348;42.710;23.378;2023-02-03T06:42:22;95638.41;;;9.78;65.74
20077;BME280;12348;42.710;23.378;2023-02-03T06:44:48;95654.44;;;10.39;63.17
20077;BME280;12348;42.710;23.378;2023-02-03T06:47:15;95644.59;;;11.53;59.63
20077;BME280;12348;42.710;23.378;2023-02-03T06:49:42;95653.16;;;11.60;56.84
20077;BME280;12348;42.710;23.378;2023-02-03T06:52:10;95661.22;;;12.23;54.33
20077;BME280;12348;42.710;23.378;2023-02-03T06:54:38;95653.63;;;11.67;54.87
20077;BME280;12348;42.710;23.378;2023-02-03T06:57:05;95652.66;;;11.58;54.50
20077;BME280;12348;42.710;23.378;2023-02-03T06:59:32;95652.59;;;11.29;55.92
20077;BME280;12348;42.710;23.378;2023-02-03T07:01:59;95663.09;;;11.99;54.94
20077;BME280;12348;42.710;23.378;2023-02-03T07:04:25;95656.09;;;12.46;52.81
20077;BME280;12348;42.710;23.378;2023-02-03T07:06:54;95648.38;;;11.52;54.44
20077;BME280;12348;42.710;23.378;2023-02-03T07:09:22;95646.34;;;12.50;52.84
20077;BME280;12348;42.710;23.378;2023-02-03T07:11:50;95646.97;;;12.42;50.89
20077;BME280;12348;42.710;23.378;2023-02-03T07:14:16;95643.28;;;12.56;50.57
20077;BME280;12348;42.710;23.378;2023-02-03T07:16:43;95641.91;;;12.59;51.12
20077;BME280;12348;42.710;23.378;2023-02-03T07:19:10;95623.53;;;11.89;52.76
20077;BME280;12348;42.710;23.378;2023-02-03T07:21:37;95630.81;;;11.20;53.67
20077;BME280;12348;42.710;23.378;2023-02-03T07:24:04;95635.84;;;11.66;53.76
20077;BME280;12348;42.710;23.378;2023-02-03T07:26:31;95629.28;;;11.77;52.82
20077;BME280;12348;42.710;23.378;2023-02-03T07:28:59;95642.34;;;11.94;52.20
20077;BME280;12348;42.710;23.378;2023-02-03T07:31:25;95640.13;;;12.01;51.60
20077;BME280;12348;42.710;23.378;2023-02-03T07:33:52;95629.66;;;11.31;54.10
20077;BME280;12348;42.710;23.378;2023-02-03T07:36:19;95630.78;;;10.31;56.25
20077;BME280;12348;42.710;23.378;2023-02-03T07:38:46;95627.47;;;10.50;53.96
20077;BME280;12348;42.710;23.378;2023-02-03T07:41:12;95651.34;;;10.66;54.83
20077;BME280;12348;42.710;23.378;2023-02-03T07:43:39;95638.78;;;11.70;52.12
20077;BME280;12348;42.710;23.378;2023-02-03T07:46:07;95646.41;;;11.62;51.58
20077;BME280;12348;42.710;23.378;2023-02-03T07:48:34;95631.50;;;11.02;51.67
20077;BME280;12348;42.710;23.378;2023-02-03T07:51:01;95639.66;;;10.32;55.18
20077;BME280;12348;42.710;23.378;2023-02-03T07:53:28;95637.47;;;10.93;52.89
20077;BME280;12348;42.710;23.378;2023-02-03T07:55:58;95649.13;;;10.79;52.96
20077;BME280;12348;42.710;23.378;2023-02-03T07:58:25;95655.78;;;10.37;55.07
20077;BME280;12348;42.710;23.378;2023-02-03T08:00:52;95653.06;;;11.02;53.19
20077;BME280;12348;42.710;23.378;2023-02-03T08:03:20;95660.16;;;10.82;53.29
20077;BME280;12348;42.710;23.378;2023-02-03T08:05:47;95665.19;;;10.44;53.69
20077;BME280;12348;42.710;23.378;2023-02-03T08:08:14;95651.00;;;10.13;54.43
20077;BME280;12348;42.710;23.378;2023-02-03T08:10:41;95664.25;;;11.19;52.21
20077;BME280;12348;42.710;23.378;2023-02-03T08:13:07;95650.72;;;11.29;51.01
20077;BME280;12348;42.710;23.378;2023-02-03T08:15:34;95659.38;;;10.77;51.57
20077;BME280;12348;42.710;23.378;2023-02-03T08:18:01;95665.28;;;10.79;52.49
20077;BME280;12348;42.710;23.378;2023-02-03T08:20:31;95672.31;;;9.79;54.53
20077;BME280;12348;42.710;23.378;2023-02-03T08:22:57;95658.22;;;10.33;53.11
20077;BME280;12348;42.710;23.378;2023-02-03T08:25:24;95664.31;;;10.59;53.18
20077;BME280;12348;42.710;23.378;2023-02-03T08:27:51;95659.97;;;10.63;52.01
20077;BME280;12348;42.710;23.378;2023-02-03T08:30:18;95663.31;;;11.39;50.42
20077;BME280;12348;42.710;23.378;2023-02-03T08:32:45;95664.44;;;11.67;49.70
20077;BME280;12348;42.710;23.378;2023-02-03T08:35:12;95667.41;;;12.00;49.31
20077;BME280;12348;42.710;23.378;2023-02-03T08:37:40;95661.72;;;12.01;47.65
20077;BME280;12348;42.710;23.378;2023-02-03T08:40:07;95672.88;;;12.43;46.75
20077;BME280;12348;42.710;23.378;2023-02-03T08:42:34;95676.81;;;11.68;48.23
20077;BME280;12348;42.710;23.378;2023-02-03T08:45:01;95676.19;;;11.47;48.57
20077;BME280;12348;42.710;23.378;2023-02-03T08:47:28;95686.72;;;10.50;50.92
20077;BME280;12348;42.710;23.378;2023-02-03T08:49:55;95688.72;;;9.83;50.42
20077;BME280;12348;42.710;23.378;2023-02-03T08:52:22;95671.84;;;10.62;50.51
20077;BME280;12348;42.710;23.378;2023-02-03T08:54:50;95694.16;;;10.73;48.33
20077;BME280;12348;42.710;23.378;2023-02-03T08:57:17;95695.19;;;12.29;45.98
20077;BME280;12348;42.710;23.378;2023-02-03T08:59:45;95708.31;;;11.44;47.79
20077;BME280;12348;42.710;23.378;2023-02-03T09:02:14;95687.91;;;9.41;51.92
20077;BME280;12348;42.710;23.378;2023-02-03T09:04:41;95706.69;;;9.16;53.88
20077;BME280;12348;42.710;23.378;2023-02-03T09:07:09;95701.53;;;10.47;50.86
20077;BME280;12348;42.710;23.378;2023-02-03T09:09:36;95705.84;;;10.43;49.80
20077;BME280;12348;42.710;23.378;2023-02-03T09:12:04;95691.13;;;10.85;51.50
20077;BME280;12348;42.710;23.378;2023-02-03T09:14:32;95688.94;;;11.36;50.10
20077;BME280;12348;42.710;23.378;2023-02-03T09:16:59;95679.44;;;11.78;49.31
20077;BME280;12348;42.710;23.378;2023-02-03T09:19:26;95679.81;;;12.25;48.34
20077;BME280;12348;42.710;23.378;2023-02-03T09:21:53;95684.91;;;10.95;51.88
20077;BME280;12348;42.710;23.378;2023-02-03T09:24:22;95683.06;;;11.29;51.15
20077;BME280;12348;42.710;23.378;2023-02-03T09:26:49;95682.38;;;11.48;50.24
20077;BME280;12348;42.710;23.378;2023-02-03T09:29:18;95682.50;;;10.83;49.54
20077;BME280;12348;42.710;23.378;2023-02-03T09:31:44;95677.31;;;11.41;49.68
20077;BME280;12348;42.710;23.378;2023-02-03T09:34:12;95688.88;;;10.42;51.07
20077;BME280;12348;42.710;23.378;2023-02-03T09:36:39;95688.72;;;9.27;54.02
20077;BME280;12348;42.710;23.378;2023-02-03T09:39:06;95704.66;;;8.13;58.74
20077;BME280;12348;42.710;23.378;2023-02-03T09:41:50;95705.22;;;8.72;57.27
20077;BME280;12348;42.710;23.378;2023-02-03T09:44:25;95710.97;;;9.02;55.55
20077;BME280;12348;42.710;23.378;2023-02-03T09:46:57;95710.97;;;10.39;52.17
20077;BME280;12348;42.710;23.378;2023-02-03T09:49:28;95689.44;;;10.39;52.98
20077;BME280;12348;42.710;23.378;2023-02-03T09:52:01;95680.38;;;9.54;54.86
20077;BME280;12348;42.710;23.378;2023-02-03T09:54:36;95693.78;;;9.13;57.82
20077;BME280;12348;42.710;23.378;2023-02-03T09:57:13;95694.59;;;10.05;55.30
20077;BME280;12348;42.710;23.378;2023-02-03T09:59:43;95677.16;;;9.77;53.85
20077;BME280;12348;42.710;23.378;2023-02-03T10:02:20;95686.31;;;9.61;54.06
20077;BME280;12348;42.710;23.378;2023-02-03T10:04:55;95693.25;;;9.16;55.18
20077;BME280;12348;42.710;23.378;2023-02-03T10:07:31;95671.22;;;9.80;54.29
20077;BME280;12348;42.710;23.378;2023-02-03T10:10:05;95653.75;;;9.62;52.96
20077;BME280;12348;42.710;23.378;2023-02-03T10:13:00;95659.97;;;9.37;53.51
20077;BME280;12348;42.710;23.378;2023-02-03T10:15:58;95642.22;;;9.57;52.55
20077;BME280;12348;42.710;23.378;2023-02-03T10:18:28;95641.38;;;9.82;50.94
20077;BME280;12348;42.710;23.378;2023-02-03T10:21:00;95641.13;;;8.96;52.14
20077;BME280;12348;42.710;23.378;2023-02-03T10:23:30;95656.19;;;9.13;52.26
20077;BME280;12348;42.710;23.378;2023-02-03T10:26:01;95662.09;;;9.10;53.11
20077;BME280;12348;42.710;23.378;2023-02-03T10:28:33;95656.19;;;9.23;51.33
20077;BME280;12348;42.710;23.378;2023-02-03T10:31:11;95676.97;;;8.49;52.35
20077;BME280;12348;42.710;23.378;2023-02-03T10:33:41;95676.72;;;7.29;55.75
20077;BME280;12348;42.710;23.378;2023-02-03T10:36:15;95666.94;;;7.82;55.62
20077;BME280;12348;42.710;23.378;2023-02-03T10:38:52;95648.59;;;8.11;53.98
20077;BME280;12348;42.710;23.378;2023-02-03T10:41:23;95655.31;;;8.82;51.38
20077;BME280;12348;42.710;23.378;2023-02-03T10:43:50;95656.28;;;8.45;54.41
20077;BME280;12348;42.710;23.378;2023-02-03T10:46:26;95656.72;;;9.10;53.79
20077;BME280;12348;42.710;23.378;2023-02-03T10:48:53;95653.53;;;9.49;53.49
20077;BME280;12348;42.710;23.378;2023-02-03T10:51:22;95653.22;;;9.70;50.73
20077;BME280;12348;42.710;23.378;2023-02-03T10:53:50;95665.34;;;8.34;53.74
20077;BME280;12348;42.710;23.378;2023-02-03T10:56:20;95666.53;;;7.31;57.66
20077;BME280;12348;42.710;23.378;2023-02-03T10:58:49;95666.13;;;6.58;60.11
20077;BME280;12348;42.710;23.378;2023-02-03T11:01:21;95677.84;;;6.79;59.53
20077;BME280;12348;42.710;23.378;2023-02-03T11:04:00;95677.88;;;6.13;60.22
20077;BME280;12348;42.710;23.378;2023-02-03T11:06:27;95662.97;;;5.62;60.84
20077;BME280;12348;42.710;23.378;2023-02-03T11:08:55;95676.28;;;5.23;60.78
20077;BME280;12348;42.710;23.378;2023-02-03T11:11:24;95671.19;;;4.76;62.20
20077;BME280;12348;42.710;23.378;2023-02-03T11:13:53;95673.66;;;4.66;61.77
20077;BME280;12348;42.710;23.378;2023-02-03T11:16:23;95671.66;;;4.44;62.37
20077;BME280;12348;42.710;23.378;2023-02-03T11:18:55;95660.56;;;4.35;64.66
20077;BME280;12348;42.710;23.378;2023-02-03T11:21:26;95671.09;;;4.71;61.71
20077;BME280;12348;42.710;23.378;2023-02-03T11:23:56;95656.38;;;4.40;61.65
20077;BME280;12348;42.710;23.378;2023-02-03T11:26:29;95655.50;;;4.22;62.23
20077;BME280;12348;42.710;23.378;2023-02-03T11:28:57;95646.56;;;4.85;61.12
20077;BME280;12348;42.710;23.378;2023-02-03T11:31:27;95633.53;;;5.06;60.27
20077;BME280;12348;42.710;23.378;2023-02-03T11:33:57;95641.59;;;5.62;59.71
20077;BME280;12348;42.710;23.378;2023-02-03T11:36:28;95647.91;;;5.55;60.50
20077;BME280;12348;42.710;23.378;2023-02-03T11:39:26;95640.03;;;5.27;60.30
20077;BME280;12348;42.710;23.378;2023-02-03T11:41:54;95641.31;;;5.07;61.16
20077;BME280;12348;42.710;23.378;2023-02-03T11:44:23;95640.00;;;4.93;61.26
20077;BME280;12348;42.710;23.378;2023-02-03T11:46:57;95627.75;;;4.64;61.13
20077;BME280;12348;42.710;23.378;2023-02-03T11:53:16;95624.66;;;6.12;56.02
20077;BME280;12348;42.710;23.378;2023-02-03T11:55:55;95625.66;;;6.76;53.62
20077;BME280;12348;42.710;23.378;2023-02-03T11:58:44;95620.28;;;7.41;52.31
20077;BME280;12348;42.710;23.378;2023-02-03T12:01:16;95624.25;;;6.69;53.08
20077;BME280;12348;42.710;23.378;2023-02-03T12:04:07;95622.88;;;6.17;53.29
20077;BME280;12348;42.710;23.378;2023-02-03T12:06:49;95612.91;;;5.74;53.42
20077;BME280;12348;42.710;23.378;2023-02-03T12:09:30;95634.31;;;6.13;52.36
20077;BME280;12348;42.710;23.378;2023-02-03T12:12:20;95636.38;;;5.89;52.37
20077;BME280;12348;42.710;23.378;2023-02-03T12:14:57;95624.38;;;5.91;52.37
20077;BME280;12348;42.710;23.378;2023-02-03T12:17:39;95628.03;;;6.24;51.88
20077;BME280;12348;42.710;23.378;2023-02-03T12:20:39;95629.66;;;5.47;54.08
20077;BME280;12348;42.710;23.378;2023-02-03T12:23:19;95629.81;;;4.90;56.89
20077;BME280;12348;42.710;23.378;2023-02-03T12:26:08;95630.63;;;5.07;55.46
20077;BME280;12348;42.710;23.378;2023-02-03T12:28:52;95621.47;;;5.54;53.22
20077;BME280;12348;42.710;23.378;2023-02-03T12:31:28;95624.47;;;5.57;51.16
20077;BME280;12348;42.710;23.378;2023-02-03T12:34:04;95632.84;;;5.66;51.97
20077;BME280;12348;42.710;23.378;2023-02-03T12:36:39;95645.75;;;5.35;53.25
20077;BME280;12348;42.710;23.378;2023-02-03T12:39:16;95634.34;;;5.06;53.33
20077;BME280;12348;42.710;23.378;2023-02-03T12:41:48;95632.47;;;5.57;52.99
20077;BME280;12348;42.710;23.378;2023-02-03T12:44:18;95616.09;;;6.10;51.68
20077;BME280;12348;42.710;23.378;2023-02-03T12:46:50;95618.78;;;6.59;49.68
20077;BME280;12348;42.710;23.378;2023-02-03T12:49:27;95616.13;;;6.15;50.55
20077;BME280;12348;42.710;23.378;2023-02-03T12:52:02;95614.50;;;5.92;51.69
20077;BME280;12348;42.710;23.378;2023-02-03T12:54:38;95603.69;;;6.25;52.24
20077;BME280;12348;42.710;23.378;2023-02-03T12:57:20;95607.38;;;6.19;51.83
20077;BME280;12348;42.710;23.378;2023-02-03T13:00:00;95606.78;;;5.73;53.04
20077;BME280;12348;42.710;23.378;2023-02-03T13:02:40;95594.38;;;5.45;54.48
20077;BME280;12348;42.710;23.378;2023-02-03T13:05:18;95596.50;;;4.93;58.21
20077;BME280;12348;42.710;23.378;2023-02-03T13:07:53;95595.97;;;4.62;59.21
20077;BME280;12348;42.710;23.378;2023-02-03T13:10:30;95607.63;;;4.56;56.21
20077;BME280;12348;42.710;23.378;2023-02-03T13:12:58;95600.19;;;4.58;56.02
20077;BME280;12348;42.710;23.378;2023-02-03T13:15:28;95596.91;;;4.10;55.06